sensor_id;sensor_type;location;lat;lon;timestamp;P1;durP1;ratioP1;P2;durP2;ratioP2
22648;SDS011;11491;41.942;24.220;2023-02-18T00:01:28;20.77;;;12.88;;
22648;SDS011;11491;41.942;24.220;2023-02-18T00:03:56;21.27;;;11.38;;
22648;SDS011;11491;41.942;24.220;2023-02-18T00:06:23;24.25;;;13.00;;
22648;SDS011;11491;41.942;24.220;2023-02-18T00:08:52;30.35;;;15.98;;
22648;SDS011;11491;41.942;24.220;2023-02-18T00:11:20;37.10;;;18.08;;
22648;SDS011;11491;41.942;24.220;2023-02-18T00:13:50;38.33;;;20.55;;
22648;SDS011;11491;41.942;24.220;2023-02-18T00:16:18;50.95;;;25.45;;
22648;SDS011;11491;41.942;24.220;2023-02-18T00:18:46;44.35;;;23.90;;
22648;SDS011;11491;41.942;24.220;2023-02-18T00:21:14;41.63;;;22.58;;
22648;SDS011;11491;41.942;24.220;2023-02-18T00:23:41;39.63;;;22.02;;
22648;SDS011;11491;41.942;24.220;2023-02-18T00:26:10;37.20;;;19.65;;
22648;SDS011;11491;41.942;24.220;2023-02-18T00:28:38;25.55;;;13.50;;
22648;SDS011;11491;41.942;24.220;2023-02-18T00:31:05;27.13;;;14.45;;
22648;SDS011;11491;41.942;24.220;2023-02-18T00:33:33;21.50;;;12.68;;
22648;SDS011;11491;41.942;24.220;2023-02-18T00:36:00;20.27;;;11.50;;
22648;SDS011;11491;41.942;24.220;2023-02-18T00:38:29;15.38;;;9.07;;
22648;SDS011;11491;41.942;24.220;2023-02-18T00:40:56;17.20;;;9.80;;
22648;SDS011;11491;41.942;24.220;2023-02-18T00:43:23;15.05;;;8.18;;
22648;SDS011;11491;41.942;24.220;2023-02-18T00:45:50;13.23;;;7.15;;
22648;SDS011;11491;41.942;24.220;2023-02-18T00:48:17;14.82;;;8.70;;
22648;SDS011;11491;41.942;24.220;2023-02-18T00:50:44;19.00;;;9.68;;
22648;SDS011;11491;41.942;24.220;2023-02-18T00:53:11;17.05;;;8.38;;
22648;SDS011;11491;41.942;24.220;2023-02-18T00:55:39;20.73;;;11.43;;
22648;SDS011;11491;41.942;24.220;2023-02-18T00:58:07;25.30;;;14.43;;
22648;SDS011;11491;41.942;24.220;2023-02-18T01:00:34;25.58;;;14.85;;
22648;SDS011;11491;41.942;24.220;2023-02-18T01:03:01;20.95;;;11.35;;
22648;SDS011;11491;41.942;24.220;2023-02-18T01:05:30;23.90;;;13.18;;
22648;SDS011;11491;41.942;24.220;2023-02-18T01:07:57;16.45;;;6.97;;
22648;SDS011;11491;41.942;24.220;2023-02-18T01:10:23;9.05;;;5.20;;
22648;SDS011;11491;41.942;24.220;2023-02-18T01:12:52;17.50;;;9.07;;
22648;SDS011;11491;41.942;24.220;2023-02-18T01:15:18;12.20;;;7.20;;
22648;SDS011;11491;41.942;24.220;2023-02-18T01:17:45;12.80;;;7.35;;
22648;SDS011;11491;41.942;24.220;2023-02-18T01:20:12;14.27;;;7.53;;
22648;SDS011;11491;41.942;24.220;2023-02-18T01:22:40;13.95;;;7.38;;
22648;SDS011;11491;41.942;24.220;2023-02-18T01:25:07;14.18;;;7.47;;
22648;SDS011;11491;41.942;24.220;2023-02-18T01:27:35;12.90;;;6.85;;
22648;SDS011;11491;41.942;24.220;2023-02-18T01:30:05;11.80;;;6.63;;
22648;SDS011;11491;41.942;24.220;2023-02-18T01:32:34;11.30;;;6.10;;
22648;SDS011;11491;41.942;24.220;2023-02-18T01:35:01;11.70;;;5.95;;
22648;SDS011;11491;41.942;24.220;2023-02-18T01:37:28;10.63;;;5.45;;
22648;SDS011;11491;41.942;24.220;2023-02-18T01:39:55;10.43;;;5.47;;
22648;SDS011;11491;41.942;24.220;2023-02-18T01:42:22;11.82;;;5.80;;
22648;SDS011;11491;41.942;24.220;2023-02-18T01:44:51;10.98;;;6.15;;
22648;SDS011;11491;41.942;24.220;2023-02-18T01:47:19;8.90;;;5.45;;
22648;SDS011;11491;41.942;24.220;2023-02-18T01:49:47;12.07;;;5.43;;
22648;SDS011;11491;41.942;24.220;2023-02-18T01:52:18;10.10;;;5.60;;
22648;SDS011;11491;41.942;24.220;2023-02-18T01:54:49;9.07;;;5.10;;
22648;SDS011;11491;41.942;24.220;2023-02-18T01:57:19;8.57;;;5.50;;
22648;SDS011;11491;41.942;24.220;2023-02-18T01:59:48;10.75;;;6.45;;
22648;SDS011;11491;41.942;24.220;2023-02-18T02:02:21;8.98;;;5.15;;
22648;SDS011;11491;41.942;24.220;2023-02-18T02:04:50;12.88;;;7.57;;
22648;SDS011;11491;41.942;24.220;2023-02-18T02:07:18;12.43;;;6.80;;
22648;SDS011;11491;41.942;24.220;2023-02-18T02:09:47;13.10;;;6.78;;
22648;SDS011;11491;41.942;24.220;2023-02-18T02:12:20;16.13;;;7.35;;
22648;SDS011;11491;41.942;24.220;2023-02-18T02:15:02;15.60;;;8.65;;
22648;SDS011;11491;41.942;24.220;2023-02-18T02:17:46;24.27;;;15.20;;
22648;SDS011;11491;41.942;24.220;2023-02-18T02:20:42;11.20;;;7.85;;
22648;SDS011;11491;41.942;24.220;2023-02-18T02:26:25;18.05;;;10.02;;
22648;SDS011;11491;41.942;24.220;2023-02-18T02:36:01;18.95;;;8.98;;
22648;SDS011;11491;41.942;24.220;2023-02-18T02:38:33;20.77;;;10.48;;
22648;SDS011;11491;41.942;24.220;2023-02-18T02:41:11;17.42;;;10.43;;
22648;SDS011;11491;41.942;24.220;2023-02-18T02:43:47;21.27;;;12.50;;
22648;SDS011;11491;41.942;24.220;2023-02-18T02:46:22;25.95;;;14.88;;
22648;SDS011;11491;41.942;24.220;2023-02-18T02:48:57;23.58;;;14.75;;
22648;SDS011;11491;41.942;24.220;2023-02-18T02:51:36;12.68;;;8.07;;
22648;SDS011;11491;41.942;24.220;2023-02-18T02:54:09;15.88;;;9.15;;
22648;SDS011;11491;41.942;24.220;2023-02-18T02:56:39;17.25;;;11.07;;
22648;SDS011;11491;41.942;24.220;2023-02-18T02:59:06;18.02;;;11.55;;
22648;SDS011;11491;41.942;24.220;2023-02-18T03:01:39;24.50;;;14.48;;
22648;SDS011;11491;41.942;24.220;2023-02-18T03:04:22;29.00;;;15.57;;
22648;SDS011;11491;41.942;24.220;2023-02-18T03:07:05;27.00;;;15.38;;
22648;SDS011;11491;41.942;24.220;2023-02-18T03:09:43;43.20;;;22.90;;
22648;SDS011;11491;41.942;24.220;2023-02-18T03:12:29;36.13;;;18.80;;
22648;SDS011;11491;41.942;24.220;2023-02-18T03:15:03;38.58;;;19.30;;
22648;SDS011;11491;41.942;24.220;2023-02-18T03:17:34;24.73;;;14.23;;
22648;SDS011;11491;41.942;24.220;2023-02-18T03:20:07;22.92;;;10.90;;
22648;SDS011;11491;41.942;24.220;2023-02-18T03:22:40;18.87;;;10.47;;
22648;SDS011;11491;41.942;24.220;2023-02-18T03:25:12;13.43;;;7.88;;
22648;SDS011;11491;41.942;24.220;2023-02-18T03:27:41;8.85;;;5.30;;
22648;SDS011;11491;41.942;24.220;2023-02-18T03:30:11;11.43;;;6.07;;
22648;SDS011;11491;41.942;24.220;2023-02-18T03:32:41;19.23;;;10.27;;
22648;SDS011;11491;41.942;24.220;2023-02-18T03:35:11;18.33;;;11.10;;
22648;SDS011;11491;41.942;24.220;2023-02-18T03:37:46;12.27;;;6.78;;
22648;SDS011;11491;41.942;24.220;2023-02-18T03:40:16;11.43;;;6.28;;
22648;SDS011;11491;41.942;24.220;2023-02-18T03:42:43;12.27;;;6.30;;
22648;SDS011;11491;41.942;24.220;2023-02-18T03:45:11;12.43;;;6.55;;
22648;SDS011;11491;41.942;24.220;2023-02-18T03:47:38;9.55;;;6.63;;
22648;SDS011;11491;41.942;24.220;2023-02-18T03:50:05;10.85;;;6.07;;
22648;SDS011;11491;41.942;24.220;2023-02-18T03:52:33;14.55;;;8.55;;
22648;SDS011;11491;41.942;24.220;2023-02-18T03:55:04;14.80;;;9.15;;
22648;SDS011;11491;41.942;24.220;2023-02-18T03:57:33;16.92;;;9.07;;
22648;SDS011;11491;41.942;24.220;2023-02-18T04:00:00;16.40;;;9.07;;
22648;SDS011;11491;41.942;24.220;2023-02-18T04:02:29;17.60;;;9.40;;
22648;SDS011;11491;41.942;24.220;2023-02-18T04:04:56;17.33;;;9.60;;
22648;SDS011;11491;41.942;24.220;2023-02-18T04:07:23;13.05;;;7.85;;
22648;SDS011;11491;41.942;24.220;2023-02-18T04:09:49;19.83;;;9.68;;
22648;SDS011;11491;41.942;24.220;2023-02-18T04:12:18;36.20;;;15.80;;
22648;SDS011;11491;41.942;24.220;2023-02-18T04:14:44;15.70;;;8.77;;
22648;SDS011;11491;41.942;24.220;2023-02-18T04:17:11;13.18;;;7.13;;
22648;SDS011;11491;41.942;24.220;2023-02-18T04:19:38;10.82;;;6.40;;
22648;SDS011;11491;41.942;24.220;2023-02-18T04:22:04;16.15;;;8.27;;
22648;SDS011;11491;41.942;24.220;2023-02-18T04:24:31;13.48;;;7.80;;
22648;SDS011;11491;41.942;24.220;2023-02-18T04:26:58;15.50;;;7.47;;
22648;SDS011;11491;41.942;24.220;2023-02-18T04:29:26;14.60;;;6.50;;
22648;SDS011;11491;41.942;24.220;2023-02-18T04:31:53;13.13;;;8.85;;
22648;SDS011;11491;41.942;24.220;2023-02-18T04:34:20;16.17;;;10.25;;
22648;SDS011;11491;41.942;24.220;2023-02-18T04:36:47;14.60;;;8.90;;
22648;SDS011;11491;41.942;24.220;2023-02-18T04:39:13;16.10;;;9.52;;
22648;SDS011;11491;41.942;24.220;2023-02-18T04:41:40;23.98;;;12.93;;
22648;SDS011;11491;41.942;24.220;2023-02-18T04:44:07;22.70;;;14.00;;
22648;SDS011;11491;41.942;24.220;2023-02-18T04:46:35;20.65;;;11.98;;
22648;SDS011;11491;41.942;24.220;2023-02-18T04:49:04;11.32;;;6.82;;
22648;SDS011;11491;41.942;24.220;2023-02-18T04:51:30;37.40;;;19.38;;
22648;SDS011;11491;41.942;24.220;2023-02-18T04:53:57;39.30;;;23.52;;
22648;SDS011;11491;41.942;24.220;2023-02-18T04:56:24;68.32;;;34.40;;
22648;SDS011;11491;41.942;24.220;2023-02-18T04:58:50;82.25;;;43.72;;
22648;SDS011;11491;41.942;24.220;2023-02-18T05:01:17;113.35;;;64.53;;
22648;SDS011;11491;41.942;24.220;2023-02-18T05:03:45;80.88;;;49.38;;
22648;SDS011;11491;41.942;24.220;2023-02-18T05:06:12;62.45;;;34.60;;
22648;SDS011;11491;41.942;24.220;2023-02-18T05:08:39;89.20;;;52.40;;
22648;SDS011;11491;41.942;24.220;2023-02-18T05:11:06;96.57;;;52.78;;
22648;SDS011;11491;41.942;24.220;2023-02-18T05:13:32;101.32;;;55.55;;
22648;SDS011;11491;41.942;24.220;2023-02-18T05:16:00;58.50;;;33.50;;
22648;SDS011;11491;41.942;24.220;2023-02-18T05:18:27;67.03;;;38.75;;
22648;SDS011;11491;41.942;24.220;2023-02-18T05:20:55;85.97;;;46.60;;
22648;SDS011;11491;41.942;24.220;2023-02-18T05:23:21;121.10;;;69.53;;
22648;SDS011;11491;41.942;24.220;2023-02-18T05:25:49;200.25;;;112.28;;
22648;SDS011;11491;41.942;24.220;2023-02-18T05:28:16;129.35;;;77.78;;
22648;SDS011;11491;41.942;24.220;2023-02-18T05:30:43;74.57;;;44.83;;
22648;SDS011;11491;41.942;24.220;2023-02-18T05:33:10;94.78;;;54.05;;
22648;SDS011;11491;41.942;24.220;2023-02-18T05:35:36;131.52;;;76.65;;
22648;SDS011;11491;41.942;24.220;2023-02-18T05:38:05;140.88;;;78.57;;
22648;SDS011;11491;41.942;24.220;2023-02-18T05:40:31;133.07;;;76.10;;
22648;SDS011;11491;41.942;24.220;2023-02-18T05:42:58;157.18;;;84.85;;
22648;SDS011;11491;41.942;24.220;2023-02-18T05:45:25;117.25;;;66.63;;
22648;SDS011;11491;41.942;24.220;2023-02-18T05:47:51;108.13;;;63.00;;
22648;SDS011;11491;41.942;24.220;2023-02-18T05:50:17;97.78;;;57.47;;
22648;SDS011;11491;41.942;24.220;2023-02-18T05:52:44;95.75;;;56.38;;
22648;SDS011;11491;41.942;24.220;2023-02-18T05:55:12;90.13;;;53.45;;
22648;SDS011;11491;41.942;24.220;2023-02-18T05:57:39;73.18;;;43.03;;
22648;SDS011;11491;41.942;24.220;2023-02-18T06:00:07;68.45;;;41.10;;
22648;SDS011;11491;41.942;24.220;2023-02-18T06:02:34;100.22;;;57.15;;
22648;SDS011;11491;41.942;24.220;2023-02-18T06:05:01;143.73;;;79.43;;
22648;SDS011;11491;41.942;24.220;2023-02-18T06:07:28;143.43;;;81.68;;
22648;SDS011;11491;41.942;24.220;2023-02-18T06:09:55;160.48;;;95.68;;
22648;SDS011;11491;41.942;24.220;2023-02-18T06:12:23;158.25;;;94.03;;
22648;SDS011;11491;41.942;24.220;2023-02-18T06:14:50;174.35;;;101.22;;
22648;SDS011;11491;41.942;24.220;2023-02-18T06:17:17;164.95;;;93.93;;
22648;SDS011;11491;41.942;24.220;2023-02-18T06:19:43;171.55;;;105.43;;
22648;SDS011;11491;41.942;24.220;2023-02-18T06:22:11;169.85;;;105.15;;
22648;SDS011;11491;41.942;24.220;2023-02-18T06:24:37;232.82;;;140.55;;
22648;SDS011;11491;41.942;24.220;2023-02-18T06:27:04;171.73;;;106.50;;
22648;SDS011;11491;41.942;24.220;2023-02-18T06:29:32;182.70;;;113.45;;
22648;SDS011;11491;41.942;24.220;2023-02-18T06:32:00;198.57;;;127.75;;
22648;SDS011;11491;41.942;24.220;2023-02-18T06:34:27;181.07;;;113.03;;
22648;SDS011;11491;41.942;24.220;2023-02-18T06:36:54;168.02;;;94.93;;
22648;SDS011;11491;41.942;24.220;2023-02-18T06:39:21;121.28;;;70.88;;
22648;SDS011;11491;41.942;24.220;2023-02-18T06:41:48;115.68;;;69.22;;
22648;SDS011;11491;41.942;24.220;2023-02-18T06:44:14;198.35;;;113.97;;
22648;SDS011;11491;41.942;24.220;2023-02-18T06:46:43;242.02;;;134.27;;
22648;SDS011;11491;41.942;24.220;2023-02-18T06:49:10;230.43;;;135.65;;
22648;SDS011;11491;41.942;24.220;2023-02-18T06:51:36;260.48;;;158.70;;
22648;SDS011;11491;41.942;24.220;2023-02-18T06:54:03;303.67;;;192.98;;
22648;SDS011;11491;41.942;24.220;2023-02-18T06:56:31;306.92;;;191.30;;
22648;SDS011;11491;41.942;24.220;2023-02-18T06:58:58;344.70;;;211.95;;
22648;SDS011;11491;41.942;24.220;2023-02-18T07:01:24;269.08;;;165.07;;
22648;SDS011;11491;41.942;24.220;2023-02-18T07:03:52;269.73;;;162.60;;
22648;SDS011;11491;41.942;24.220;2023-02-18T07:06:19;284.15;;;174.98;;
22648;SDS011;11491;41.942;24.220;2023-02-18T07:08:46;274.25;;;171.77;;
22648;SDS011;11491;41.942;24.220;2023-02-18T07:11:13;301.17;;;191.98;;
22648;SDS011;11491;41.942;24.220;2023-02-18T07:13:40;328.48;;;216.80;;
22648;SDS011;11491;41.942;24.220;2023-02-18T07:16:06;340.13;;;219.68;;
22648;SDS011;11491;41.942;24.220;2023-02-18T07:18:33;344.85;;;227.25;;
22648;SDS011;11491;41.942;24.220;2023-02-18T07:21:01;336.42;;;225.23;;
22648;SDS011;11491;41.942;24.220;2023-02-18T07:23:28;275.83;;;183.93;;
22648;SDS011;11491;41.942;24.220;2023-02-18T07:26:01;279.13;;;185.13;;
22648;SDS011;11491;41.942;24.220;2023-02-18T07:28:29;179.18;;;114.82;;
22648;SDS011;11491;41.942;24.220;2023-02-18T07:30:56;165.15;;;109.97;;
22648;SDS011;11491;41.942;24.220;2023-02-18T07:33:22;113.68;;;79.20;;
22648;SDS011;11491;41.942;24.220;2023-02-18T07:35:51;126.47;;;84.32;;
22648;SDS011;11491;41.942;24.220;2023-02-18T07:38:20;171.13;;;114.32;;
22648;SDS011;11491;41.942;24.220;2023-02-18T07:40:48;148.05;;;102.90;;
22648;SDS011;11491;41.942;24.220;2023-02-18T07:43:15;149.55;;;98.82;;
22648;SDS011;11491;41.942;24.220;2023-02-18T07:45:41;177.18;;;121.88;;
22648;SDS011;11491;41.942;24.220;2023-02-18T07:48:09;198.80;;;136.32;;
22648;SDS011;11491;41.942;24.220;2023-02-18T07:50:38;197.30;;;138.27;;
22648;SDS011;11491;41.942;24.220;2023-02-18T07:53:05;234.57;;;159.25;;
22648;SDS011;11491;41.942;24.220;2023-02-18T07:55:33;252.88;;;179.40;;
22648;SDS011;11491;41.942;24.220;2023-02-18T07:58:16;222.65;;;159.38;;
22648;SDS011;11491;41.942;24.220;2023-02-18T08:00:44;215.45;;;151.05;;
22648;SDS011;11491;41.942;24.220;2023-02-18T08:03:13;117.75;;;85.43;;
22648;SDS011;11491;41.942;24.220;2023-02-18T08:05:41;109.45;;;77.68;;
22648;SDS011;11491;41.942;24.220;2023-02-18T08:08:08;130.25;;;95.00;;
22648;SDS011;11491;41.942;24.220;2023-02-18T08:10:39;191.15;;;135.07;;
22648;SDS011;11491;41.942;24.220;2023-02-18T08:13:07;173.68;;;123.63;;
22648;SDS011;11491;41.942;24.220;2023-02-18T08:15:34;128.45;;;92.93;;
22648;SDS011;11491;41.942;24.220;2023-02-18T08:18:01;147.27;;;101.68;;
22648;SDS011;11491;41.942;24.220;2023-02-18T08:20:28;160.40;;;109.80;;
22648;SDS011;11491;41.942;24.220;2023-02-18T08:22:54;247.45;;;141.48;;
22648;SDS011;11491;41.942;24.220;2023-02-18T08:25:21;205.18;;;129.15;;
22648;SDS011;11491;41.942;24.220;2023-02-18T08:27:49;225.95;;;140.00;;
22648;SDS011;11491;41.942;24.220;2023-02-18T08:30:16;262.75;;;164.75;;
22648;SDS011;11491;41.942;24.220;2023-02-18T08:32:43;243.43;;;158.85;;
22648;SDS011;11491;41.942;24.220;2023-02-18T08:35:10;205.02;;;135.27;;
22648;SDS011;11491;41.942;24.220;2023-02-18T08:37:37;225.68;;;145.88;;
22648;SDS011;11491;41.942;24.220;2023-02-18T08:40:05;259.00;;;182.68;;
22648;SDS011;11491;41.942;24.220;2023-02-18T08:42:32;242.55;;;179.95;;
22648;SDS011;11491;41.942;24.220;2023-02-18T08:45:00;195.40;;;144.15;;
22648;SDS011;11491;41.942;24.220;2023-02-18T08:47:27;212.18;;;156.82;;
22648;SDS011;11491;41.942;24.220;2023-02-18T08:49:54;260.20;;;191.60;;
22648;SDS011;11491;41.942;24.220;2023-02-18T08:52:22;258.73;;;192.80;;
22648;SDS011;11491;41.942;24.220;2023-02-18T08:54:49;239.27;;;181.32;;
22648;SDS011;11491;41.942;24.220;2023-02-18T08:57:15;241.20;;;182.35;;
22648;SDS011;11491;41.942;24.220;2023-02-18T08:59:42;248.65;;;188.20;;
22648;SDS011;11491;41.942;24.220;2023-02-18T09:02:11;129.93;;;94.38;;
22648;SDS011;11491;41.942;24.220;2023-02-18T09:04:39;133.40;;;100.05;;
22648;SDS011;11491;41.942;24.220;2023-02-18T09:07:06;57.25;;;41.38;;
22648;SDS011;11491;41.942;24.220;2023-02-18T09:09:32;49.10;;;33.47;;
22648;SDS011;11491;41.942;24.220;2023-02-18T09:11:59;36.08;;;24.95;;
22648;SDS011;11491;41.942;24.220;2023-02-18T09:14:26;17.92;;;11.75;;
22648;SDS011;11491;41.942;24.220;2023-02-18T09:16:53;27.70;;;16.30;;
22648;SDS011;11491;41.942;24.220;2023-02-18T09:19:23;19.90;;;12.98;;
22648;SDS011;11491;41.942;24.220;2023-02-18T09:21:49;24.08;;;17.42;;
22648;SDS011;11491;41.942;24.220;2023-02-18T09:24:17;31.23;;;20.85;;
22648;SDS011;11491;41.942;24.220;2023-02-18T09:26:44;21.67;;;14.63;;
22648;SDS011;11491;41.942;24.220;2023-02-18T09:29:11;18.77;;;12.68;;
22648;SDS011;11491;41.942;24.220;2023-02-18T09:31:38;13.73;;;9.75;;
22648;SDS011;11491;41.942;24.220;2023-02-18T09:34:04;15.27;;;9.70;;
22648;SDS011;11491;41.942;24.220;2023-02-18T09:36:33;13.80;;;7.93;;
22648;SDS011;11491;41.942;24.220;2023-02-18T09:38:59;15.80;;;11.65;;
22648;SDS011;11491;41.942;24.220;2023-02-18T09:41:29;22.33;;;17.80;;
22648;SDS011;11491;41.942;24.220;2023-02-18T09:44:02;20.25;;;13.45;;
22648;SDS011;11491;41.942;24.220;2023-02-18T09:46:35;32.00;;;23.13;;
22648;SDS011;11491;41.942;24.220;2023-02-18T09:49:06;32.20;;;20.88;;
22648;SDS011;11491;41.942;24.220;2023-02-18T09:51:41;20.45;;;14.32;;
22648;SDS011;11491;41.942;24.220;2023-02-18T09:54:08;31.98;;;20.58;;
22648;SDS011;11491;41.942;24.220;2023-02-18T09:56:36;30.58;;;12.85;;
22648;SDS011;11491;41.942;24.220;2023-02-18T09:59:08;15.00;;;8.65;;
22648;SDS011;11491;41.942;24.220;2023-02-18T10:01:39;11.38;;;5.97;;
22648;SDS011;11491;41.942;24.220;2023-02-18T10:04:09;5.00;;;3.05;;
22648;SDS011;11491;41.942;24.220;2023-02-18T10:06:42;8.05;;;5.00;;
22648;SDS011;11491;41.942;24.220;2023-02-18T10:09:14;9.70;;;4.60;;
22648;SDS011;11491;41.942;24.220;2023-02-18T10:11:47;18.02;;;12.90;;
22648;SDS011;11491;41.942;24.220;2023-02-18T10:14:15;5.60;;;3.63;;
22648;SDS011;11491;41.942;24.220;2023-02-18T10:16:43;9.63;;;6.50;;
22648;SDS011;11491;41.942;24.220;2023-02-18T10:19:17;16.00;;;9.32;;
22648;SDS011;11491;41.942;24.220;2023-02-18T10:21:49;14.65;;;10.18;;
22648;SDS011;11491;41.942;24.220;2023-02-18T10:24:19;21.75;;;13.15;;
22648;SDS011;11491;41.942;24.220;2023-02-18T10:26:52;20.17;;;11.43;;
22648;SDS011;11491;41.942;24.220;2023-02-18T10:29:20;15.80;;;9.02;;
22648;SDS011;11491;41.942;24.220;2023-02-18T10:31:48;24.73;;;13.70;;
22648;SDS011;11491;41.942;24.220;2023-02-18T10:34:20;9.73;;;7.32;;
22648;SDS011;11491;41.942;24.220;2023-02-18T10:36:57;12.48;;;7.45;;
22648;SDS011;11491;41.942;24.220;2023-02-18T10:39:37;21.67;;;12.02;;
22648;SDS011;11491;41.942;24.220;2023-02-18T10:42:17;24.58;;;17.65;;
22648;SDS011;11491;41.942;24.220;2023-02-18T10:44:58;22.92;;;12.13;;
22648;SDS011;11491;41.942;24.220;2023-02-18T10:47:36;23.50;;;13.73;;
22648;SDS011;11491;41.942;24.220;2023-02-18T10:52:39;13.10;;;7.20;;
22648;SDS011;11491;41.942;24.220;2023-02-18T10:55:08;8.57;;;6.57;;
22648;SDS011;11491;41.942;24.220;2023-02-18T10:57:45;8.27;;;4.25;;
22648;SDS011;11491;41.942;24.220;2023-02-18T11:00:18;6.82;;;4.50;;
22648;SDS011;11491;41.942;24.220;2023-02-18T11:02:59;8.18;;;5.25;;
22648;SDS011;11491;41.942;24.220;2023-02-18T11:05:29;8.88;;;6.13;;
22648;SDS011;11491;41.942;24.220;2023-02-18T11:08:03;7.53;;;5.65;;
22648;SDS011;11491;41.942;24.220;2023-02-18T11:10:35;7.55;;;6.28;;
22648;SDS011;11491;41.942;24.220;2023-02-18T11:13:06;9.48;;;4.57;;
22648;SDS011;11491;41.942;24.220;2023-02-18T11:15:34;7.97;;;4.60;;
22648;SDS011;11491;41.942;24.220;2023-02-18T11:18:10;5.65;;;4.40;;
22648;SDS011;11491;41.942;24.220;2023-02-18T11:20:39;7.30;;;4.93;;
22648;SDS011;11491;41.942;24.220;2023-02-18T11:23:16;5.40;;;3.90;;
22648;SDS011;11491;41.942;24.220;2023-02-18T11:25:55;7.57;;;3.92;;
22648;SDS011;11491;41.942;24.220;2023-02-18T11:28:30;5.95;;;3.20;;
22648;SDS011;11491;41.942;24.220;2023-02-18T11:31:05;9.82;;;7.40;;
22648;SDS011;11491;41.942;24.220;2023-02-18T11:33:34;16.38;;;12.60;;
22648;SDS011;11491;41.942;24.220;2023-02-18T11:36:08;23.92;;;15.65;;
22648;SDS011;11491;41.942;24.220;2023-02-18T11:38:45;16.38;;;14.73;;
22648;SDS011;11491;41.942;24.220;2023-02-18T11:41:14;13.07;;;11.68;;
22648;SDS011;11491;41.942;24.220;2023-02-18T11:43:45;3.80;;;2.90;;
22648;SDS011;11491;41.942;24.220;2023-02-18T11:46:15;9.50;;;6.60;;
22648;SDS011;11491;41.942;24.220;2023-02-18T11:48:43;10.55;;;5.43;;
22648;SDS011;11491;41.942;24.220;2023-02-18T11:51:15;13.85;;;11.23;;
22648;SDS011;11491;41.942;24.220;2023-02-18T11:53:54;12.20;;;8.30;;
22648;SDS011;11491;41.942;24.220;2023-02-18T11:56:26;16.77;;;12.98;;
22648;SDS011;11491;41.942;24.220;2023-02-18T11:58:55;15.82;;;12.57;;
22648;SDS011;11491;41.942;24.220;2023-02-18T12:04:11;10.70;;;7.30;;
22648;SDS011;11491;41.942;24.220;2023-02-18T12:06:43;6.45;;;5.43;;
22648;SDS011;11491;41.942;24.220;2023-02-18T12:09:21;9.90;;;6.20;;
22648;SDS011;11491;41.942;24.220;2023-02-18T12:11:53;6.05;;;5.45;;
22648;SDS011;11491;41.942;24.220;2023-02-18T12:14:22;4.53;;;2.95;;
22648;SDS011;11491;41.942;24.220;2023-02-18T12:19:51;5.25;;;4.40;;
22648;SDS011;11491;41.942;24.220;2023-02-18T12:22:33;5.13;;;3.90;;
22648;SDS011;11491;41.942;24.220;2023-02-18T12:25:14;13.35;;;9.70;;
22648;SDS011;11491;41.942;24.220;2023-02-18T12:27:51;19.67;;;15.45;;
22648;SDS011;11491;41.942;24.220;2023-02-18T12:30:35;12.82;;;8.35;;
22648;SDS011;11491;41.942;24.220;2023-02-18T12:33:24;16.90;;;12.13;;
22648;SDS011;11491;41.942;24.220;2023-02-18T12:36:03;9.82;;;5.93;;
22648;SDS011;11491;41.942;24.220;2023-02-18T12:41:33;45.65;;;27.67;;
22648;SDS011;11491;41.942;24.220;2023-02-18T12:44:12;24.67;;;17.48;;
22648;SDS011;11491;41.942;24.220;2023-02-18T12:46:54;23.67;;;16.88;;
22648;SDS011;11491;41.942;24.220;2023-02-18T12:52:32;14.00;;;9.55;;
22648;SDS011;11491;41.942;24.220;2023-02-18T12:55:23;14.43;;;11.50;;
22648;SDS011;11491;41.942;24.220;2023-02-18T12:57:57;21.63;;;16.90;;
22648;SDS011;11491;41.942;24.220;2023-02-18T13:00:37;94.72;;;68.65;;
22648;SDS011;11491;41.942;24.220;2023-02-18T13:03:40;53.22;;;36.28;;
22648;SDS011;11491;41.942;24.220;2023-02-18T13:06:30;21.50;;;16.63;;
22648;SDS011;11491;41.942;24.220;2023-02-18T13:09:22;17.00;;;13.65;;
22648;SDS011;11491;41.942;24.220;2023-02-18T13:11:59;17.33;;;12.77;;
22648;SDS011;11491;41.942;24.220;2023-02-18T13:14:35;10.93;;;7.90;;
22648;SDS011;11491;41.942;24.220;2023-02-18T13:17:08;27.55;;;23.13;;
22648;SDS011;11491;41.942;24.220;2023-02-18T13:19:40;22.45;;;16.73;;
22648;SDS011;11491;41.942;24.220;2023-02-18T13:22:13;16.42;;;12.43;;
22648;SDS011;11491;41.942;24.220;2023-02-18T13:24:42;13.85;;;12.25;;
22648;SDS011;11491;41.942;24.220;2023-02-18T13:27:12;8.00;;;5.90;;
22648;SDS011;11491;41.942;24.220;2023-02-18T13:29:47;41.28;;;27.63;;
22648;SDS011;11491;41.942;24.220;2023-02-18T13:32:22;12.10;;;9.38;;
22648;SDS011;11491;41.942;24.220;2023-02-18T13:34:57;8.43;;;7.05;;
22648;SDS011;11491;41.942;24.220;2023-02-18T13:37:32;4.80;;;3.30;;
22648;SDS011;11491;41.942;24.220;2023-02-18T13:40:08;13.23;;;10.70;;
22648;SDS011;11491;41.942;24.220;2023-02-18T13:42:39;7.13;;;6.22;;
22648;SDS011;11491;41.942;24.220;2023-02-18T13:47:54;5.45;;;2.28;;
22648;SDS011;11491;41.942;24.220;2023-02-18T13:50:26;6.65;;;4.18;;
22648;SDS011;11491;41.942;24.220;2023-02-18T13:52:58;11.88;;;8.30;;
22648;SDS011;11491;41.942;24.220;2023-02-18T13:55:38;36.30;;;25.85;;
22648;SDS011;11491;41.942;24.220;2023-02-18T13:58:11;19.58;;;14.40;;
22648;SDS011;11491;41.942;24.220;2023-02-18T14:00:44;3.78;;;3.00;;
22648;SDS011;11491;41.942;24.220;2023-02-18T14:03:27;32.90;;;27.83;;
22648;SDS011;11491;41.942;24.220;2023-02-18T14:08:30;39.00;;;31.90;;
22648;SDS011;11491;41.942;24.220;2023-02-18T14:14:13;34.90;;;29.27;;
22648;SDS011;11491;41.942;24.220;2023-02-18T14:22:53;85.90;;;64.47;;
22648;SDS011;11491;41.942;24.220;2023-02-18T14:25:21;64.22;;;49.67;;
22648;SDS011;11491;41.942;24.220;2023-02-18T14:28:00;77.32;;;63.22;;
22648;SDS011;11491;41.942;24.220;2023-02-18T14:30:29;80.15;;;60.53;;
22648;SDS011;11491;41.942;24.220;2023-02-18T14:33:03;81.85;;;66.45;;
22648;SDS011;11491;41.942;24.220;2023-02-18T14:35:31;57.13;;;47.47;;
22648;SDS011;11491;41.942;24.220;2023-02-18T14:38:14;40.85;;;31.15;;
22648;SDS011;11491;41.942;24.220;2023-02-18T14:44:14;51.00;;;36.15;;
22648;SDS011;11491;41.942;24.220;2023-02-18T14:46:51;79.10;;;55.25;;
22648;SDS011;11491;41.942;24.220;2023-02-18T14:49:35;69.00;;;48.95;;
22648;SDS011;11491;41.942;24.220;2023-02-18T14:52:04;75.45;;;55.22;;
22648;SDS011;11491;41.942;24.220;2023-02-18T14:54:36;57.05;;;40.53;;
22648;SDS011;11491;41.942;24.220;2023-02-18T14:57:06;49.28;;;36.55;;
22648;SDS011;11491;41.942;24.220;2023-02-18T14:59:40;62.15;;;44.00;;
22648;SDS011;11491;41.942;24.220;2023-02-18T15:04:57;59.75;;;46.80;;
22648;SDS011;11491;41.942;24.220;2023-02-18T15:07:36;63.53;;;44.03;;
22648;SDS011;11491;41.942;24.220;2023-02-18T15:10:03;75.93;;;50.33;;
22648;SDS011;11491;41.942;24.220;2023-02-18T15:12:38;65.00;;;44.45;;